createdAt,value
2023-05-06T00:04:26.864Z,37.35
2023-05-06T00:09:31.062Z,37.08
2023-05-06T00:14:33.881Z,37.67
2023-05-06T00:19:36.720Z,37.31
2023-05-06T00:24:41.004Z,37.88
2023-05-06T00:29:43.885Z,37.21
2023-05-06T00:34:47.028Z,37.54
2023-05-06T00:39:51.170Z,37.97
2023-05-06T00:44:53.981Z,37.45
2023-05-06T00:49:57.329Z,37.56
2023-05-06T00:55:01.525Z,37.54
2023-05-06T01:00:07.178Z,37.91
2023-05-06T01:05:12.244Z,37.83
2023-05-06T01:10:22.504Z,37.74
2023-05-06T01:15:30.356Z,37.63
2023-05-06T01:20:34.329Z,38.15
2023-05-06T01:25:41.676Z,38.08
2023-05-06T01:30:50.836Z,37.98
2023-05-06T01:35:56.838Z,38.11
2023-05-06T01:41:02.515Z,38.28
2023-05-06T01:46:06.447Z,37.65
2023-05-06T01:51:09.457Z,38.22
2023-05-06T01:56:14.128Z,37.92
2023-05-06T02:01:17.889Z,37.67
2023-05-06T02:06:20.720Z,38.31
2023-05-06T02:11:24.894Z,38.03
2023-05-06T02:16:29.558Z,38.01
2023-05-06T02:21:33.064Z,38.37
2023-05-06T02:26:37.294Z,38.47
2023-05-06T02:31:40.205Z,37.83
2023-05-06T02:36:43.092Z,37.86
2023-05-06T02:41:47.334Z,38.42
2023-05-06T02:46:50.171Z,38.43
2023-05-06T02:51:53.002Z,37.96
2023-05-06T02:57:00.061Z,37.87
2023-05-06T03:02:03.076Z,38.59
2023-05-06T03:07:05.913Z,38.34
2023-05-06T03:12:10.050Z,38.19
2023-05-06T03:17:12.927Z,37.97
2023-05-06T03:22:15.710Z,38.02
2023-05-06T03:27:20.510Z,37.96
2023-05-06T03:32:23.335Z,38.10
2023-05-06T03:37:26.422Z,38.37
2023-05-06T03:42:31.071Z,38.59
2023-05-06T03:47:34.024Z,38.15
2023-05-06T03:52:36.941Z,38.44
2023-05-06T03:57:41.164Z,38.12
2023-05-06T04:02:44.111Z,38.47
2023-05-06T04:07:46.922Z,38.52
2023-05-06T04:12:51.175Z,38.17
2023-05-06T04:17:54.046Z,38.32
2023-05-06T04:22:56.824Z,38.25
2023-05-06T04:28:01.014Z,38.42
2023-05-06T04:33:04.043Z,38.42
2023-05-06T04:38:07.180Z,38.02
2023-05-06T04:43:12.069Z,38.35
2023-05-06T04:48:16.217Z,38.33
2023-05-06T04:53:19.058Z,38.00
2023-05-06T04:58:23.240Z,38.27
2023-05-06T05:03:26.216Z,38.46
2023-05-06T05:08:29.157Z,37.94
2023-05-06T05:13:33.398Z,38.22
2023-05-06T05:18:36.247Z,38.52
2023-05-06T05:23:39.085Z,37.82
2023-05-06T05:28:44.394Z,38.32
2023-05-06T05:33:47.291Z,38.13
2023-05-06T05:38:50.249Z,38.33
2023-05-06T05:43:54.450Z,37.84
2023-05-06T05:48:57.283Z,38.10
2023-05-06T05:54:00.162Z,38.33
2023-05-06T05:59:04.536Z,38.24
2023-05-06T06:04:07.498Z,38.06
2023-05-06T06:09:11.105Z,37.95
2023-05-06T06:14:15.350Z,38.10
2023-05-06T06:19:18.159Z,37.68
2023-05-06T06:24:21.075Z,37.86
2023-05-06T06:29:25.376Z,37.74
2023-05-06T06:34:28.245Z,37.83
2023-05-06T06:39:31.018Z,37.87
2023-05-06T06:44:35.707Z,38.22
2023-05-06T06:49:41.187Z,37.77
2023-05-06T06:54:44.117Z,37.82
2023-05-06T06:59:50.389Z,37.52
2023-05-06T07:04:53.197Z,37.98
2023-05-06T07:09:56.079Z,38.04
2023-05-06T07:15:01.548Z,37.85
2023-05-06T07:20:04.863Z,37.93
2023-05-06T07:25:08.808Z,37.55
2023-05-06T07:30:13.847Z,37.51
2023-05-06T07:35:16.678Z,37.99
2023-05-06T07:40:19.469Z,38.03
2023-05-06T07:45:25.122Z,37.41
2023-05-06T07:50:27.922Z,37.83
2023-05-06T07:55:32.014Z,37.25
2023-05-06T08:00:36.928Z,37.72
2023-05-06T08:05:39.726Z,37.54
2023-05-06T08:10:42.549Z,37.58
2023-05-06T08:15:46.894Z,37.51
2023-05-06T08:20:49.766Z,37.66
2023-05-06T08:25:52.583Z,37.34
2023-05-06T08:30:56.765Z,37.70
2023-05-06T08:35:59.752Z,37.35
2023-05-06T08:41:10.652Z,37.52
2023-05-06T08:46:15.236Z,37.27
2023-05-06T08:51:18.916Z,37.09
2023-05-06T08:56:23.102Z,37.12
2023-05-06T09:01:28.460Z,37.47
2023-05-06T09:06:31.503Z,37.36
2023-05-06T09:11:34.358Z,37.06
2023-05-06T09:16:39.195Z,37.56
2023-05-06T09:21:43.935Z,37.01
2023-05-06T09:26:48.233Z,37.50
2023-05-06T09:31:56.442Z,37.37
2023-05-06T09:36:59.306Z,37.04
2023-05-06T09:42:02.252Z,36.98
2023-05-06T09:47:07.055Z,37.06
2023-05-06T09:52:10.083Z,36.76
2023-05-06T09:57:14.003Z,37.06
2023-05-06T10:02:18.581Z,36.79
2023-05-06T10:07:23.614Z,36.84
2023-05-06T10:12:26.561Z,37.35
2023-05-06T10:17:32.749Z,37.16
2023-05-06T10:22:44.973Z,36.61
2023-05-06T10:27:49.724Z,36.94
2023-05-06T10:32:57.884Z,37.15
2023-05-06T10:38:01.773Z,36.62
2023-05-06T10:43:27.388Z,37.00
2023-05-06T10:48:32.312Z,36.85
2023-05-06T10:53:59.817Z,36.74
2023-05-06T10:59:06.928Z,36.66
2023-05-06T11:04:12.695Z,36.52
2023-05-06T11:09:19.903Z,36.40
2023-05-06T11:14:27.287Z,36.95
2023-05-06T11:19:32.122Z,36.88
2023-05-06T11:24:40.184Z,36.97
2023-05-06T11:29:44.296Z,36.92
2023-05-06T11:34:48.432Z,36.78
2023-05-06T11:39:51.257Z,36.29
2023-05-06T11:44:55.916Z,36.40
2023-05-06T11:50:06.385Z,36.82
2023-05-06T11:55:10.936Z,36.39
2023-05-06T12:00:14.889Z,36.50
2023-05-06T12:05:23.608Z,36.79
2023-05-06T12:10:26.493Z,36.26
2023-05-06T12:15:29.759Z,36.64
2023-05-06T12:20:33.911Z,36.50
2023-05-06T12:25:36.747Z,36.69
2023-05-06T12:30:39.598Z,36.77
2023-05-06T12:35:43.751Z,36.27
2023-05-06T12:40:54.049Z,36.59
2023-05-06T12:46:07.147Z,36.59
2023-05-06T12:51:21.347Z,36.66
2023-05-06T12:56:24.360Z,36.29
2023-05-06T13:01:27.428Z,36.42
2023-05-06T13:06:33.017Z,36.20
2023-05-06T13:11:35.870Z,36.53
2023-05-06T13:16:39.931Z,36.59
2023-05-06T13:21:44.258Z,36.70
2023-05-06T13:26:47.087Z,36.38
2023-05-06T13:31:49.884Z,36.26
2023-05-06T13:36:54.638Z,36.06
2023-05-06T13:41:57.490Z,36.53
2023-05-06T13:47:00.448Z,36.00
2023-05-06T13:52:05.774Z,35.96
2023-05-06T13:57:10.803Z,35.96
2023-05-06T14:02:13.790Z,35.91
2023-05-06T14:07:18.249Z,36.03
2023-05-06T14:12:22.853Z,35.87
2023-05-06T14:17:25.870Z,35.96
2023-05-06T14:22:30.155Z,35.81
2023-05-06T14:27:32.968Z,36.08
2023-05-06T14:32:35.850Z,35.70
2023-05-06T14:37:40.088Z,35.38
2023-05-06T14:42:42.909Z,35.51
2023-05-06T14:47:45.992Z,35.23
2023-05-06T14:52:50.533Z,34.89
2023-05-06T14:57:53.800Z,34.62
2023-05-06T15:02:56.677Z,34.38
2023-05-06T15:08:00.891Z,34.15
2023-05-06T15:13:03.783Z,33.92
2023-05-06T15:18:06.779Z,33.35
2023-05-06T15:23:10.998Z,31.43
2023-05-06T15:28:13.837Z,31.05
2023-05-06T15:33:16.675Z,31.70
2023-05-06T15:38:20.943Z,30.80
2023-05-06T15:43:24.637Z,30.61
2023-05-06T15:48:29.308Z,31.32
2023-05-06T15:53:33.497Z,30.27
2023-05-06T15:58:36.728Z,31.05
2023-05-06T16:03:41.138Z,31.58
2023-05-06T16:08:45.509Z,32.69
2023-05-06T16:13:48.489Z,33.37
2023-05-06T16:18:51.560Z,32.93
2023-05-06T16:23:55.741Z,33.30
2023-05-06T16:28:59.506Z,33.86
2023-05-06T16:34:02.375Z,33.45
2023-05-06T16:39:08.135Z,31.30
2023-05-06T16:44:10.918Z,32.82
2023-05-06T16:49:13.757Z,32.77
2023-05-06T16:54:17.953Z,33.43
2023-05-06T16:59:22.397Z,33.70
2023-05-06T17:04:25.927Z,33.45
2023-05-06T17:09:30.156Z,32.78
2023-05-06T17:14:32.983Z,33.76
2023-05-06T17:19:35.834Z,34.48
2023-05-06T17:24:39.986Z,34.81
2023-05-06T17:29:42.845Z,35.00
2023-05-06T17:34:46.938Z,35.44
2023-05-06T17:39:52.321Z,35.43
2023-05-06T17:44:55.216Z,35.57
2023-05-06T17:49:58.028Z,35.59
2023-05-06T17:55:11.797Z,35.94
2023-05-06T18:00:19.332Z,36.01
2023-05-06T18:05:24.566Z,35.84
2023-05-06T18:10:29.440Z,36.53
2023-05-06T18:15:32.966Z,36.40
2023-05-06T18:20:35.816Z,36.51
2023-05-06T18:25:39.966Z,36.77
2023-05-06T18:30:42.745Z,36.56
2023-05-06T18:35:45.668Z,36.85
2023-05-06T18:40:50.247Z,36.94
2023-05-06T18:45:53.228Z,37.03
2023-05-06T18:50:56.101Z,37.24
2023-05-06T18:56:00.305Z,37.20
2023-05-06T19:01:03.184Z,37.13
2023-05-06T19:06:09.167Z,37.33
2023-05-06T19:11:18.090Z,37.15
2023-05-06T19:16:21.722Z,37.36
2023-05-06T19:21:24.601Z,37.48
2023-05-06T19:26:28.867Z,37.52
2023-05-06T19:31:31.767Z,37.76
2023-05-06T19:36:34.660Z,38.00
2023-05-06T19:41:38.840Z,37.40
2023-05-06T19:46:41.788Z,37.82
2023-05-06T19:51:44.825Z,37.56
2023-05-06T19:56:49.185Z,38.01
2023-05-06T20:01:53.217Z,37.65
2023-05-06T20:06:57.929Z,38.21
2023-05-06T20:12:03.342Z,37.90
2023-05-06T20:17:06.242Z,38.19
2023-05-06T20:22:09.312Z,37.88
2023-05-06T20:27:13.544Z,38.45
2023-05-06T20:32:16.340Z,38.41
2023-05-06T20:37:20.006Z,38.04
2023-05-06T20:42:24.209Z,38.35
2023-05-06T20:47:27.131Z,38.57
2023-05-06T20:52:30.027Z,38.25
2023-05-06T20:57:34.213Z,38.74
2023-05-06T21:02:41.401Z,38.81
2023-05-06T21:07:44.867Z,38.78
2023-05-06T21:12:49.541Z,38.70
2023-05-06T21:17:52.448Z,38.32
2023-05-06T21:22:56.375Z,38.42
2023-05-06T21:28:04.925Z,38.77
2023-05-06T21:33:10.906Z,38.85
2023-05-06T21:38:13.859Z,38.69
2023-05-06T21:43:18.262Z,39.15
2023-05-06T21:48:21.369Z,38.74
2023-05-06T21:53:24.220Z,39.05
2023-05-06T21:58:28.404Z,38.90
2023-05-06T22:03:31.386Z,38.91
2023-05-06T22:08:34.262Z,39.11
2023-05-06T22:13:38.390Z,39.01
2023-05-06T22:18:42.644Z,39.30
2023-05-06T22:23:45.443Z,39.22
2023-05-06T22:28:49.856Z,39.22
2023-05-06T22:33:55.444Z,39.32
2023-05-06T22:38:58.502Z,39.19
2023-05-06T22:44:02.841Z,39.50
2023-05-06T22:49:05.706Z,39.58
2023-05-06T22:54:08.592Z,39.60
2023-05-06T22:59:13.299Z,38.97
2023-05-06T23:04:16.299Z,39.16
2023-05-06T23:09:19.256Z,39.06
2023-05-06T23:14:23.742Z,39.63
2023-05-06T23:19:26.892Z,39.10
2023-05-06T23:24:29.725Z,39.62
2023-05-06T23:29:33.869Z,39.68
2023-05-06T23:34:36.674Z,39.08
2023-05-06T23:39:40.323Z,39.34
2023-05-06T23:44:44.547Z,39.44
2023-05-06T23:49:47.340Z,39.58
2023-05-06T23:54:50.188Z,39.52
2023-05-06T23:59:54.393Z,39.08
